Time;durP1;ratioP1;P1;durP2;ratioP2;P2;SDS_P1;SDS_P2;PMS_P1;PMS_P2;Temp;Humidity;BMP_temperature;BMP_pressure;BME280_temperature;BME280_humidity;BME280_pressure;Samples;Min_cycle;Max_cycle;Signal;HPM_P1;HPM_P2
2023/05/10 00:00:55;;;;;;;2.47;1.50;;;;;;;20.93;40.85;100457.13;5071318;28;20097;-65
2023/05/10 00:03:25;;;;;;;3.35;1.75;;;;;;;20.93;40.48;100459.00;5071264;28;20481;-65
2023/05/10 00:05:54;;;;;;;2.95;1.60;;;;;;;20.92;41.10;100452.72;5071249;28;20055;-64
2023/05/10 00:08:22;;;;;;;2.60;1.30;;;;;;;20.92;41.06;100457.28;5071222;28;20182;-65
2023/05/10 00:10:50;;;;;;;2.42;1.52;;;;;;;20.91;40.90;100450.16;5071489;28;20128;-65
2023/05/10 00:13:19;;;;;;;2.88;1.50;;;;;;;20.90;40.72;100449.31;5071232;28;20391;-65
2023/05/10 00:15:47;;;;;;;2.55;1.58;;;;;;;20.89;41.01;100444.91;5071167;28;20451;-65
2023/05/10 00:18:16;;;;;;;3.05;1.40;;;;;;;20.89;40.92;100452.19;5071155;28;20092;-64
2023/05/10 00:20:46;;;;;;;3.17;1.60;;;;;;;20.88;40.85;100451.34;5070519;28;20093;-65
2023/05/10 00:23:14;;;;;;;2.35;1.40;;;;;;;20.87;40.99;100449.63;5070564;28;20051;-65
2023/05/10 00:25:43;;;;;;;2.63;1.50;;;;;;;20.86;41.08;100445.22;5071036;28;20135;-65
2023/05/10 00:28:11;;;;;;;2.72;1.63;;;;;;;20.85;41.15;100440.81;5070987;28;20080;-65
2023/05/10 00:30:39;;;;;;;2.88;1.60;;;;;;;20.85;40.72;100440.81;5070945;28;20136;-65
2023/05/10 00:33:07;;;;;;;2.13;1.50;;;;;;;20.84;41.17;100445.38;5070840;28;20044;-65
2023/05/10 00:35:36;;;;;;;2.47;1.63;;;;;;;20.84;41.12;100437.25;5070757;28;20072;-65
2023/05/10 00:38:05;;;;;;;2.50;1.30;;;;;;;20.82;40.74;100444.66;5070710;28;20053;-66
2023/05/10 00:40:34;;;;;;;2.58;1.60;;;;;;;20.82;40.88;100446.53;5070609;28;20499;-64
2023/05/10 00:43:02;;;;;;;2.88;1.42;;;;;;;20.81;41.37;100448.38;5070812;28;20203;-65
2023/05/10 00:45:31;;;;;;;2.17;1.20;;;;;;;20.80;41.18;100446.69;5070823;28;20572;-65
2023/05/10 00:48:02;;;;;;;2.35;1.48;;;;;;;20.79;41.05;100446.84;5070748;28;20048;-65
2023/05/10 00:50:31;;;;;;;2.22;1.42;;;;;;;20.78;40.98;100443.28;5069408;28;20044;-66
2023/05/10 00:53:00;;;;;;;2.75;1.70;;;;;;;20.77;41.17;100440.72;5069494;28;20504;-66
2023/05/10 00:55:30;;;;;;;3.15;1.50;;;;;;;20.76;40.99;100442.59;5074002;28;20148;-66
2023/05/10 00:57:59;;;;;;;2.53;1.60;;;;;;;20.75;41.14;100442.72;5074324;28;20053;-66
2023/05/10 01:00:29;;;;;;;3.05;1.70;;;;;;;20.74;40.97;100430.16;5074190;28;20147;-66
2023/05/10 01:02:58;;;;;;;2.80;1.50;;;;;;;20.73;41.29;100428.47;5074188;28;20044;-66
2023/05/10 01:05:27;;;;;;;4.22;1.58;;;;;;;20.71;41.24;100434.03;5074072;28;20106;-66
2023/05/10 01:07:57;;;;;;;2.92;1.70;;;;;;;20.71;40.97;100436.75;5072999;28;20096;-66
2023/05/10 01:10:27;;;;;;;2.33;1.50;;;;;;;20.70;41.32;100431.50;5073974;28;20468;-66
2023/05/10 01:12:57;;;;;;;4.30;1.60;;;;;;;20.69;41.42;100430.63;5074046;28;20048;-66
2023/05/10 01:15:27;;;;;;;1.67;1.27;;;;;;;20.68;41.34;100430.78;5073923;28;20071;-66
2023/05/10 01:17:58;;;;;;;2.38;1.50;;;;;;;20.69;41.26;100427.06;5073940;28;20102;-66
2023/05/10 01:20:31;;;;;;;2.53;1.60;;;;;;;20.67;41.48;100431.81;5074155;28;20113;-66
2023/05/10 01:23:08;;;;;;;;;;;;;;;20.66;41.39;100424.69;5074269;28;20135;-66
2023/05/10 01:26:11;;;;;;;2.05;1.35;;;;;;;20.64;41.27;100427.53;5072491;28;19942;-66
2023/05/10 01:29:13;;;;;;;3.30;1.63;;;;;;;20.64;41.04;100426.66;5073501;28;20048;-65
2023/05/10 01:32:13;;;;;;;2.45;1.45;;;;;;;20.63;41.01;100420.41;5073729;28;20139;-64
2023/05/10 01:34:51;;;;;;;3.15;1.70;;;;;;;20.62;41.38;100425.97;5073482;28;20044;-65
2023/05/10 01:37:26;;;;;;;1.95;1.40;;;;;;;20.61;41.10;100422.41;5074073;28;20131;-65
2023/05/10 01:40:11;;;;;;;3.72;1.77;;;;;;;20.61;41.05;100418.84;5074388;28;20066;-65
2023/05/10 01:42:47;;;;;;;2.55;1.50;;;;;;;20.58;41.01;100420.88;5073359;28;20080;-65
2023/05/10 01:45:25;;;;;;;2.72;1.77;;;;;;;20.58;41.25;100417.31;5073559;28;20052;-65
2023/05/10 01:48:05;;;;;;;2.38;1.60;;;;;;;20.57;41.06;100421.88;5073345;28;20059;-65
2023/05/10 01:50:35;;;;;;;2.53;1.38;;;;;;;20.56;41.21;100417.47;5073473;28;20041;-64
2023/05/10 01:53:07;;;;;;;2.05;1.30;;;;;;;20.55;41.31;100426.56;5073274;28;20044;-65
2023/05/10 01:55:40;;;;;;;3.63;1.60;;;;;;;20.54;41.48;100424.88;5073329;28;20059;-64
2023/05/10 01:58:14;;;;;;;2.78;1.70;;;;;;;20.54;41.32;100424.03;5073218;28;20048;-64
2023/05/10 02:00:45;;;;;;;3.20;1.60;;;;;;;20.52;41.16;100407.91;5073137;28;20053;-64
2023/05/10 02:03:19;;;;;;;2.53;1.52;;;;;;;20.52;41.69;100413.34;5073034;28;20048;-65
2023/05/10 02:05:50;;;;;;;2.85;1.65;;;;;;;20.52;41.56;100417.91;5072046;28;20110;-64
2023/05/10 02:08:23;;;;;;;2.90;1.45;;;;;;;20.51;41.30;100410.78;5073013;28;20226;-64
2023/05/10 02:10:56;;;;;;;2.67;1.67;;;;;;;20.50;41.38;100409.09;5072653;28;20048;-64
2023/05/10 02:13:26;;;;;;;3.05;1.30;;;;;;;20.49;41.41;100408.25;5072784;28;20135;-65
2023/05/10 02:15:56;;;;;;;2.30;1.40;;;;;;;20.48;41.61;100401.13;5072842;28;20048;-64
2023/05/10 02:18:28;;;;;;;3.30;1.63;;;;;;;20.48;41.54;100403.81;5072585;28;20083;-64
2023/05/10 02:20:57;;;;;;;2.47;1.50;;;;;;;20.47;41.40;100402.13;5071543;28;20048;-65
2023/05/10 02:23:26;;;;;;;2.85;1.50;;;;;;;20.46;41.65;100403.13;5072612;28;20049;-65
2023/05/10 02:25:57;;;;;;;2.88;1.40;;;;;;;20.46;41.43;100396.84;5071503;28;20040;-65
2023/05/10 02:28:27;;;;;;;4.88;1.40;;;;;;;20.45;41.52;100398.69;5072599;28;20048;-65
2023/05/10 02:30:59;;;;;;;2.30;1.27;;;;;;;20.44;41.47;100397.00;5072476;28;20135;-65
2023/05/10 02:33:32;;;;;;;2.57;1.40;;;;;;;20.42;41.75;100398.97;5072516;28;20095;-65
2023/05/10 02:36:03;;;;;;;2.53;1.60;;;;;;;20.42;41.76;100393.56;5072314;28;20102;-65
2023/05/10 02:38:34;;;;;;;3.28;1.50;;;;;;;20.42;41.64;100403.53;5072430;28;20055;-65
2023/05/10 02:41:02;;;;;;;2.42;1.60;;;;;;;20.41;41.77;100399.97;5072346;28;20044;-65
2023/05/10 02:43:33;;;;;;;2.45;1.67;;;;;;;20.41;41.92;100405.41;5072035;28;20058;-65
2023/05/10 02:46:01;;;;;;;2.20;1.40;;;;;;;20.40;41.59;100398.28;5072226;28;20072;-64
2023/05/10 02:48:31;;;;;;;3.40;1.60;;;;;;;20.39;41.72;100402.00;5072133;28;20080;-64
2023/05/10 02:51:05;;;;;;;1.98;1.40;;;;;;;20.39;41.73;100396.56;5072077;28;20128;-65
2023/05/10 02:53:36;;;;;;;3.10;1.60;;;;;;;20.38;41.70;100404.84;5071999;28;20048;-65
2023/05/10 02:56:15;;;;;;;2.03;1.40;;;;;;;20.38;41.59;100402.16;5071880;28;20044;-65
2023/05/10 02:58:43;;;;;;;2.75;1.60;;;;;;;20.37;41.87;100403.16;5072370;28;20429;-65
2023/05/10 03:01:11;;;;;;;2.72;1.55;;;;;;;20.36;41.68;100406.84;5071935;28;20131;-65
2023/05/10 03:03:40;;;;;;;2.78;1.60;;;;;;;20.36;41.54;100406.84;5071531;28;20064;-65
2023/05/10 03:06:09;;;;;;;2.25;1.48;;;;;;;20.35;41.68;100400.56;5071763;28;20123;-65
2023/05/10 03:08:37;;;;;;;2.10;1.40;;;;;;;20.34;41.96;100409.72;5068065;28;20140;-65
2023/05/10 03:11:33;;;;;;;2.28;1.50;;;;;;;20.34;41.86;100398.88;5072043;28;20466;-66
2023/05/10 03:14:14;;;;;;;2.72;1.60;;;;;;;20.33;41.58;100402.59;5060695;28;20071;-65
2023/05/10 03:16:48;;;;;;;2.03;1.40;;;;;;;20.32;41.73;100400.03;5051338;28;20051;-66
2023/05/10 03:19:30;;;;;;;2.72;1.67;;;;;;;20.32;41.95;100400.88;5051757;28;20063;-65
2023/05/10 03:22:06;;;;;;;2.30;1.60;;;;;;;20.31;41.86;100401.91;5051734;28;20049;-65
2023/05/10 03:24:36;;;;;;;3.40;1.58;;;;;;;20.30;42.00;100397.47;5051557;28;20064;-64
2023/05/10 03:27:05;;;;;;;3.22;1.73;;;;;;;20.30;41.74;100403.75;5051483;28;20106;-65
2023/05/10 03:29:34;;;;;;;3.00;1.63;;;;;;;20.28;42.01;100399.50;5051269;28;20049;-65
2023/05/10 03:32:04;;;;;;;2.28;1.58;;;;;;;20.29;41.85;100401.19;5051483;28;20547;-65
2023/05/10 03:34:34;;;;;;;2.55;1.58;;;;;;;20.28;42.04;100400.34;5051530;28;20128;-64
2023/05/10 03:37:02;;;;;;;2.35;1.40;;;;;;;20.28;41.86;100399.50;5060697;28;20135;-65
2023/05/10 03:39:33;;;;;;;2.28;1.55;;;;;;;20.27;41.98;100397.78;5051399;28;20048;-66
2023/05/10 03:42:01;;;;;;;3.03;1.65;;;;;;;20.26;42.13;100396.06;5051156;28;20051;-66
2023/05/10 03:44:29;;;;;;;2.90;1.60;;;;;;;20.25;41.75;100403.34;5051508;28;20465;-66
2023/05/10 03:47:00;;;;;;;2.33;1.50;;;;;;;20.25;41.78;100397.06;5051283;28;20041;-66
2023/05/10 03:49:28;;;;;;;2.45;1.52;;;;;;;20.24;41.81;100398.06;5051087;28;20144;-66
2023/05/10 03:52:05;;;;;;;2.80;1.65;;;;;;;20.24;41.82;100403.50;5051030;28;20095;-66
2023/05/10 03:54:33;;;;;;;1.92;1.50;;;;;;;20.23;42.03;100402.63;5051033;28;20045;-66
2023/05/10 03:57:03;;;;;;;2.20;1.40;;;;;;;20.23;42.11;100404.50;5051304;28;20049;-66
2023/05/10 03:59:32;;;;;;;2.08;1.42;;;;;;;20.23;42.08;100401.78;5051353;28;20067;-66
2023/05/10 04:02:00;;;;;;;2.85;1.45;;;;;;;20.22;42.11;100400.09;5050928;28;20478;-66
2023/05/10 04:04:28;;;;;;;2.17;1.52;;;;;;;20.22;42.08;100400.09;5051089;28;20543;-66
2023/05/10 04:06:56;;;;;;;2.25;1.60;;;;;;;20.22;42.13;100405.50;5050857;28;20044;-65
2023/05/10 04:09:26;;;;;;;3.10;1.55;;;;;;;20.21;42.22;100399.25;5050758;28;20470;-65
2023/05/10 04:11:57;;;;;;;2.38;1.52;;;;;;;20.22;42.02;100408.22;5050460;28;20152;-66
2023/05/10 04:14:25;;;;;;;3.22;1.75;;;;;;;20.21;41.96;100398.38;5050948;28;20128;-65
2023/05/10 04:16:53;;;;;;;2.80;1.55;;;;;;;20.20;41.87;100392.13;5050733;28;20427;-65
2023/05/10 04:19:21;;;;;;;2.60;1.60;;;;;;;20.20;42.06;100397.53;5049535;28;20547;-65
2023/05/10 04:21:50;;;;;;;2.38;1.50;;;;;;;20.20;41.96;100393.97;5050802;28;20049;-65
2023/05/10 04:24:18;;;;;;;3.47;1.70;;;;;;;20.19;42.07;100403.09;5058596;28;20401;-65
2023/05/10 04:26:48;;;;;;;2.80;1.70;;;;;;;20.18;42.34;100393.28;5070948;28;20052;-64
2023/05/10 04:29:16;;;;;;;4.18;1.65;;;;;;;20.19;42.26;100397.69;5072440;28;20098;-64
2023/05/10 04:31:48;;;;;;;2.13;1.50;;;;;;;20.19;42.29;100405.81;5074719;28;20052;-66
2023/05/10 04:34:16;;;;;;;3.45;1.63;;;;;;;20.17;42.24;100402.38;5074644;28;20118;-65
2023/05/10 04:36:45;;;;;;;2.30;1.40;;;;;;;20.17;42.33;100403.25;5074820;28;20078;-64
2023/05/10 04:39:14;;;;;;;2.40;1.50;;;;;;;20.17;42.20;100397.84;5075084;28;20058;-64
2023/05/10 04:41:42;;;;;;;3.50;1.77;;;;;;;20.17;42.03;100407.78;5074720;28;20573;-64
2023/05/10 04:44:12;;;;;;;2.83;1.55;;;;;;;20.16;42.20;100401.53;5074567;28;20040;-66
2023/05/10 04:46:40;;;;;;;2.45;1.58;;;;;;;20.15;42.05;100401.69;5074263;28;20369;-64
2023/05/10 04:49:08;;;;;;;3.03;1.60;;;;;;;20.16;41.94;100406.09;5074496;28;20045;-65
2023/05/10 04:51:36;;;;;;;3.20;1.70;;;;;;;20.15;42.45;100398.97;5073299;28;20053;-65
2023/05/10 04:54:05;;;;;;;2.53;1.70;;;;;;;20.14;42.36;100399.97;5074372;28;20497;-65
2023/05/10 04:56:35;;;;;;;2.60;1.60;;;;;;;20.15;42.35;100404.38;5074064;28;20466;-66
2023/05/10 04:59:03;;;;;;;4.70;1.75;;;;;;;20.15;42.44;100407.09;5073634;28;20052;-65
2023/05/10 05:01:33;;;;;;;2.85;1.55;;;;;;;20.14;42.20;100405.41;5073746;28;20049;-66
2023/05/10 05:04:02;;;;;;;2.72;1.70;;;;;;;20.15;42.57;100410.66;5073822;28;20088;-64
2023/05/10 05:06:30;;;;;;;2.22;1.70;;;;;;;20.14;42.33;100402.69;5073846;28;20052;-64
2023/05/10 05:08:58;;;;;;;2.45;1.50;;;;;;;20.13;42.53;100407.25;5074103;28;20076;-64
2023/05/10 05:11:26;;;;;;;2.95;1.90;;;;;;;20.14;42.23;100410.81;5073350;28;20056;-64
2023/05/10 05:13:55;;;;;;;2.85;1.77;;;;;;;20.13;42.13;100406.41;5073307;28;20052;-65
2023/05/10 05:16:23;;;;;;;2.58;1.60;;;;;;;20.12;42.27;100410.13;5072870;28;20086;-66
2023/05/10 05:18:52;;;;;;;3.50;1.80;;;;;;;20.11;42.57;100411.97;5073503;28;20099;-65
2023/05/10 05:21:21;;;;;;;3.65;1.98;;;;;;;20.12;43.04;100415.53;5073408;28;20084;-65
2023/05/10 05:23:49;;;;;;;3.40;1.90;;;;;;;20.12;43.11;100407.41;5073338;28;20056;-64
2023/05/10 05:26:17;;;;;;;3.47;1.92;;;;;;;20.13;43.13;100411.81;5073363;28;20040;-64
2023/05/10 05:28:51;;;;;;;3.50;1.80;;;;;;;20.11;43.24;100420.09;5073472;28;20040;-64
2023/05/10 05:31:19;;;;;;;3.80;1.73;;;;;;;20.11;43.41;100419.25;5073440;28;20052;-65
2023/05/10 05:33:47;;;;;;;5.13;1.90;;;;;;;20.11;43.43;100414.69;5073568;28;20048;-63
2023/05/10 05:36:17;;;;;;;3.78;2.00;;;;;;;20.13;43.21;100418.09;5073348;28;20500;-65
2023/05/10 05:38:45;;;;;;;4.15;2.17;;;;;;;20.12;43.15;100420.94;5072959;28;20132;-64
2023/05/10 05:41:13;;;;;;;4.00;2.08;;;;;;;20.14;43.08;100429.78;5072718;28;20044;-64
2023/05/10 05:43:41;;;;;;;2.92;1.70;;;;;;;20.14;43.52;100424.34;5072912;28;20052;-64
2023/05/10 05:46:10;;;;;;;3.17;1.70;;;;;;;20.14;43.15;100424.34;5073193;28;20055;-66
2023/05/10 05:48:38;;;;;;;3.92;2.00;;;;;;;20.15;43.31;100431.47;5071906;28;20082;-65
2023/05/10 05:51:06;;;;;;;3.13;1.90;;;;;;;20.14;43.38;100427.91;5071833;28;20151;-65
2023/05/10 05:53:36;;;;;;;3.20;1.75;;;;;;;20.14;43.24;100427.91;5072757;28;20070;-64
2023/05/10 05:56:05;;;;;;;3.70;2.20;;;;;;;20.14;43.16;100435.19;5072924;28;20058;-64
2023/05/10 05:58:33;;;;;;;3.42;1.90;;;;;;;20.14;43.46;100427.06;5072956;28;20048;-65
2023/05/10 06:01:01;;;;;;;4.63;1.80;;;;;;;20.14;43.33;100438.75;5072791;28;20048;-65
2023/05/10 06:03:30;;;;;;;4.63;2.10;;;;;;;20.14;43.60;100432.47;5072904;28;20056;-66
2023/05/10 06:05:58;;;;;;;3.50;2.00;;;;;;;20.15;43.49;100437.75;5072949;28;20167;-64
2023/05/10 06:08:26;;;;;;;3.72;1.80;;;;;;;20.15;43.66;100434.19;5072603;28;20048;-64
2023/05/10 06:10:56;;;;;;;2.60;1.50;;;;;;;20.16;43.59;100435.88;5073445;28;20045;-65
2023/05/10 06:13:24;;;;;;;4.35;2.28;;;;;;;20.16;43.28;100435.88;5072696;28;20049;-64
2023/05/10 06:15:52;;;;;;;4.00;2.13;;;;;;;20.15;43.65;100436.88;5072993;28;20047;-65
2023/05/10 06:18:21;;;;;;;3.47;1.73;;;;;;;20.16;43.66;100446.72;5072404;28;20482;-65
2023/05/10 06:20:51;;;;;;;4.32;2.10;;;;;;;20.16;43.45;100435.88;5072462;28;20048;-64
2023/05/10 06:23:19;;;;;;;3.08;1.80;;;;;;;20.16;43.38;100447.56;5072686;28;20063;-64
2023/05/10 06:25:47;;;;;;;2.97;1.80;;;;;;;20.17;43.87;100440.28;5072406;28;20135;-64
2023/05/10 06:28:20;;;;;;;3.40;2.00;;;;;;;20.18;43.90;100439.31;5072505;28;20052;-64
2023/05/10 06:30:48;;;;;;;2.95;1.80;;;;;;;20.18;43.98;100444.75;5072258;28;20056;-64
2023/05/10 06:33:17;;;;;;;3.88;1.88;;;;;;;20.19;43.77;100449.16;5072111;28;20118;-65
2023/05/10 06:35:45;;;;;;;3.10;2.03;;;;;;;20.19;43.71;100454.56;5071275;28;20390;-65
2023/05/10 06:38:13;;;;;;;2.80;1.83;;;;;;;20.20;44.21;100456.25;5050598;28;20045;-65
2023/05/10 06:40:45;;;;;;;3.47;1.98;;;;;;;20.20;44.22;100450.84;5065716;28;20460;-64
2023/05/10 06:43:13;;;;;;;4.20;1.92;;;;;;;20.20;43.97;100450.84;5071798;28;20048;-64
2023/05/10 06:45:42;;;;;;;3.25;1.88;;;;;;;20.21;43.95;100447.13;5073363;28;20127;-64
2023/05/10 06:48:10;;;;;;;2.88;1.85;;;;;;;20.21;43.95;100447.13;5092236;28;20072;-64
2023/05/10 06:50:38;;;;;;;3.70;1.90;;;;;;;20.22;44.36;100449.69;5085681;28;20052;-63
2023/05/10 06:53:27;;;;;;;4.70;1.88;;;;;;;20.22;44.09;100448.84;5068297;28;20047;-64
2023/05/10 06:55:56;;;;;;;6.55;2.30;;;;;;;20.23;44.31;100447.84;5072124;28;20136;-64
2023/05/10 06:58:24;;;;;;;5.60;2.20;;;;;;;20.24;43.98;100441.41;5071223;28;20481;-64
2023/05/10 07:01:02;;;;;;;5.10;2.13;;;;;;;20.25;44.33;100440.41;5071593;28;20045;-64
2023/05/10 07:03:30;;;;;;;4.43;2.13;;;;;;;20.25;44.10;100443.13;5069587;28;20049;-63
2023/05/10 07:06:03;;;;;;;5.32;2.53;;;;;;;20.26;43.93;100450.22;5071534;28;20432;-62
2023/05/10 07:08:31;;;;;;;6.05;2.15;;;;;;;20.27;44.01;100443.84;5072770;28;20094;-64
2023/05/10 07:11:04;;;;;;;4.18;2.05;;;;;;;20.28;43.97;100445.53;5070775;28;20087;-64
2023/05/10 07:13:36;;;;;;;3.75;1.92;;;;;;;20.28;44.25;100443.69;5071357;28;20413;-65
2023/05/10 07:16:06;;;;;;;4.53;1.80;;;;;;;20.29;44.13;100449.97;5068494;28;20098;-64
2023/05/10 07:18:34;;;;;;;3.75;1.88;;;;;;;20.29;44.47;100444.53;5070785;28;20159;-64
2023/05/10 07:21:05;;;;;;;4.72;1.92;;;;;;;20.30;44.22;100444.38;5071175;28;20182;-63
2023/05/10 07:23:34;;;;;;;5.22;2.38;;;;;;;20.32;44.19;100437.97;5068929;28;20128;-64
2023/05/10 07:26:02;;;;;;;5.15;1.92;;;;;;;20.33;44.19;100450.50;5068409;28;20508;-64
2023/05/10 07:28:33;;;;;;;4.90;2.30;;;;;;;20.32;44.56;100441.53;5062082;28;20087;-64
2023/05/10 07:31:02;;;;;;;5.60;2.33;;;;;;;20.33;44.31;100432.38;5068141;28;20045;-62
2023/05/10 07:33:34;;;;;;;4.78;2.20;;;;;;;20.35;44.20;100432.22;5071617;28;20443;-63
2023/05/10 07:36:03;;;;;;;4.07;2.20;;;;;;;20.35;44.18;100422.25;5071578;28;20057;-65
2023/05/10 07:38:31;;;;;;;3.40;1.92;;;;;;;20.37;44.45;100431.09;5070873;28;20430;-64
2023/05/10 07:40:59;;;;;;;5.47;2.58;;;;;;;20.38;44.67;100421.13;5071690;28;20045;-67
2023/05/10 07:43:27;;;;;;;6.07;2.20;;;;;;;20.39;44.22;100423.66;5078087;28;20048;-63
2023/05/10 07:45:57;;;;;;;5.15;2.20;;;;;;;20.40;44.48;100433.50;5086360;28;20044;-63
2023/05/10 07:48:25;;;;;;;3.55;2.20;;;;;;;20.42;44.85;100430.63;5070636;28;20128;-63
2023/05/10 07:50:57;;;;;;;4.63;2.15;;;;;;;20.42;44.58;100423.34;5070294;28;20044;-63
2023/05/10 07:53:27;;;;;;;6.07;2.45;;;;;;;20.44;44.87;100418.66;5070565;28;20075;-64
2023/05/10 07:55:59;;;;;;;4.38;2.13;;;;;;;20.45;44.91;100420.38;5070547;28;20040;-63
2023/05/10 07:58:28;;;;;;;9.25;2.28;;;;;;;20.46;44.61;100430.22;5070518;28;20040;-64
2023/05/10 08:00:57;;;;;;;4.63;2.17;;;;;;;20.49;45.11;100429.06;5070336;28;20477;-66
2023/05/10 08:03:25;;;;;;;5.50;2.25;;;;;;;20.50;45.17;100428.06;5070235;28;20044;-63
2023/05/10 08:05:54;;;;;;;4.85;2.20;;;;;;;20.51;45.17;100427.91;5074405;28;20049;-62
2023/05/10 08:08:23;;;;;;;5.20;1.98;;;;;;;20.52;45.14;100435.03;5074783;28;20124;-63
2023/05/10 08:10:52;;;;;;;5.15;2.20;;;;;;;20.54;44.90;100434.88;5074793;28;20067;-62
2023/05/10 08:13:20;;;;;;;5.28;2.38;;;;;;;20.54;45.30;100430.28;5074735;28;20048;-63
2023/05/10 08:15:48;;;;;;;5.57;2.10;;;;;;;20.56;44.96;100431.03;5074889;28;20401;-69
2023/05/10 08:18:16;;;;;;;4.57;2.00;;;;;;;20.57;44.94;100426.44;5075029;28;20131;-61
2023/05/10 08:20:44;;;;;;;4.20;2.03;;;;;;;20.58;45.21;100429.00;5074856;28;20457;-63
2023/05/10 08:23:14;;;;;;;4.55;2.20;;;;;;;20.61;45.01;100432.41;5074191;28;20123;-65
2023/05/10 08:25:42;;;;;;;4.75;2.38;;;;;;;20.61;44.64;100429.69;5074179;28;20420;-64
2023/05/10 08:28:13;;;;;;;4.70;2.20;;;;;;;20.63;45.01;100435.81;5074897;28;20041;-64
2023/05/10 08:30:41;;;;;;;3.40;2.00;;;;;;;20.63;44.87;100428.53;5074614;28;20076;-64
2023/05/10 08:33:09;;;;;;;3.70;2.30;;;;;;;20.64;44.53;100424.81;5073228;28;20138;-65
2023/05/10 08:35:37;;;;;;;5.47;2.17;;;;;;;20.65;44.67;100426.50;5074642;28;20044;-64
2023/05/10 08:38:05;;;;;;;4.00;2.30;;;;;;;20.66;44.76;100430.97;5074663;28;20044;-65
2023/05/10 08:40:43;;;;;;;5.63;2.03;;;;;;;20.68;44.88;100431.66;5073970;28;20150;-65
2023/05/10 08:43:15;;;;;;;3.90;2.10;;;;;;;20.70;44.54;100426.06;5078724;28;20040;-63
2023/05/10 08:45:46;;;;;;;4.78;2.10;;;;;;;20.71;44.75;100425.06;5078698;28;20053;-65
2023/05/10 08:48:15;;;;;;;4.72;2.00;;;;;;;20.73;44.51;100425.75;5057725;28;20481;-65
2023/05/10 08:50:43;;;;;;;4.20;2.25;;;;;;;20.74;44.63;100422.88;5073105;28;20048;-65
2023/05/10 08:53:13;;;;;;;7.18;2.33;;;;;;;20.74;45.06;100417.47;5073903;28;20063;-64
2023/05/10 08:55:43;;;;;;;5.32;2.10;;;;;;;20.76;44.99;100425.47;5066400;28;20111;-65
2023/05/10 08:58:12;;;;;;;5.78;2.10;;;;;;;20.78;45.39;100428.88;5063522;28;20037;-63
2023/05/10 09:00:41;;;;;;;4.22;2.22;;;;;;;20.81;45.30;100425.84;5073752;28;20481;-65
2023/05/10 09:03:10;;;;;;;5.18;2.20;;;;;;;20.82;45.37;100425.69;5073165;28;20114;-65
2023/05/10 09:05:42;;;;;;;4.38;2.35;;;;;;;20.83;45.60;100429.25;5074666;28;20066;-64
2023/05/10 09:08:13;;;;;;;4.65;2.10;;;;;;;20.84;45.63;100420.09;5073706;28;20124;-64
2023/05/10 09:10:44;;;;;;;8.70;2.50;;;;;;;20.86;45.07;100423.53;5073606;28;20099;-64
2023/05/10 09:13:12;;;;;;;7.95;2.50;;;;;;;20.87;45.43;100425.25;5073666;28;20393;-64
2023/05/10 09:15:40;;;;;;;5.80;2.50;;;;;;;20.88;45.17;100424.22;5073355;28;20055;-64
2023/05/10 09:18:08;;;;;;;5.82;2.28;;;;;;;20.89;45.11;100425.94;5073993;28;20072;-64
2023/05/10 09:20:36;;;;;;;6.32;2.30;;;;;;;20.90;45.42;100422.22;5073578;28;20041;-64
2023/05/10 09:23:05;;;;;;;5.82;2.50;;;;;;;20.92;45.57;100414.75;5073792;28;20059;-64
2023/05/10 09:25:34;;;;;;;6.25;2.30;;;;;;;20.94;45.30;100420.03;5073644;28;20485;-64
2023/05/10 09:28:06;;;;;;;4.80;2.67;;;;;;;20.95;45.18;100419.91;5073412;28;20507;-64
2023/05/10 09:30:34;;;;;;;4.90;2.40;;;;;;;20.97;45.17;100412.44;5073315;28;20587;-64
2023/05/10 09:33:04;;;;;;;6.03;2.50;;;;;;;20.97;45.24;100412.44;5073070;28;20048;-64
2023/05/10 09:35:33;;;;;;;7.55;2.70;;;;;;;21.00;45.22;100414.84;5073102;28;20139;-64
2023/05/10 09:38:07;;;;;;;5.30;2.55;;;;;;;21.00;45.40;100414.00;5073286;28;20139;-64
2023/05/10 09:40:35;;;;;;;4.18;2.28;;;;;;;21.02;45.53;100407.41;5073430;28;20044;-66
2023/05/10 09:43:06;;;;;;;5.05;2.13;;;;;;;21.03;45.18;100409.09;5073070;28;20507;-63
2023/05/10 09:45:36;;;;;;;4.95;2.22;;;;;;;21.04;45.08;100407.28;5073182;28;20074;-64
2023/05/10 09:48:11;;;;;;;6.30;2.63;;;;;;;21.05;45.04;100409.81;5072142;28;20067;-64
2023/05/10 09:50:39;;;;;;;6.57;2.78;;;;;;;21.06;45.13;100408.81;5073124;28;20055;-64
2023/05/10 09:53:07;;;;;;;4.88;2.30;;;;;;;21.07;45.03;100404.25;5072684;28;20417;-65
2023/05/10 09:55:44;;;;;;;6.70;2.47;;;;;;;21.09;45.20;100400.34;5073096;28;20538;-64
2023/05/10 09:58:14;;;;;;;7.60;2.83;;;;;;;21.11;45.50;100408.31;5072848;28;20459;-65
2023/05/10 10:00:44;;;;;;;4.90;2.58;;;;;;;21.13;45.26;100398.16;5071510;28;20048;-65
2023/05/10 10:03:15;;;;;;;5.32;2.40;;;;;;;21.13;45.25;100401.75;5072768;28;20131;-65
2023/05/10 10:05:45;;;;;;;5.57;2.70;;;;;;;21.15;45.17;100398.88;5072742;28;20146;-65
2023/05/10 10:08:15;;;;;;;3.67;2.22;;;;;;;21.17;45.16;100387.88;5072706;28;20102;-65
2023/05/10 10:10:46;;;;;;;3.95;2.40;;;;;;;21.19;45.01;100378.56;5072530;28;20064;-66
2023/05/10 10:13:17;;;;;;;5.72;2.70;;;;;;;21.21;45.22;100389.25;5072709;28;20052;-64
2023/05/10 10:15:45;;;;;;;6.07;2.40;;;;;;;21.22;45.01;100382.81;5073076;28;20063;-65
2023/05/10 10:18:15;;;;;;;4.85;2.38;;;;;;;21.24;45.09;100370.81;5072965;28;20048;-65
2023/05/10 10:20:44;;;;;;;4.60;2.35;;;;;;;21.25;45.12;100382.53;5072753;28;20465;-65
2023/05/10 10:23:12;;;;;;;5.10;2.40;;;;;;;21.26;44.95;100376.97;5072793;28;20052;-64
2023/05/10 10:25:44;;;;;;;4.80;2.28;;;;;;;21.28;45.12;100376.81;5070917;28;20044;-65
2023/05/10 10:28:32;;;;;;;5.70;2.10;;;;;;;21.31;45.00;100371.06;5071861;28;20049;-65
2023/05/10 10:31:28;;;;;;;6.18;2.53;;;;;;;21.32;44.81;100362.75;5072441;28;20045;-64
2023/05/10 10:34:04;;;;;;;5.90;2.80;;;;;;;21.34;45.17;100360.75;5072435;28;20051;-64
2023/05/10 10:36:34;;;;;;;5.85;2.60;;;;;;;21.36;45.04;100363.31;5072278;28;20492;-65
2023/05/10 10:39:03;;;;;;;6.50;2.45;;;;;;;21.38;44.84;100369.41;5072339;28;20094;-65
2023/05/10 10:41:34;;;;;;;4.70;2.40;;;;;;;21.38;45.08;100362.13;5072370;28;20044;-65
2023/05/10 10:44:27;;;;;;;6.75;2.20;;;;;;;21.39;45.04;100363.81;5072172;28;20057;-64
2023/05/10 10:47:08;;;;;;;3.80;2.22;;;;;;;21.43;44.86;100353.53;5071974;28;20047;-66
2023/05/10 10:49:44;;;;;;;4.82;2.55;;;;;;;21.46;44.63;100360.47;5072276;28;20052;-66
2023/05/10 10:52:21;;;;;;;4.43;2.25;;;;;;;21.48;45.12;100358.47;5072581;28;20144;-64
2023/05/10 10:54:53;;;;;;;4.50;2.20;;;;;;;21.49;44.76;100360.16;5071643;28;20052;-64
2023/05/10 10:57:22;;;;;;;6.82;2.50;;;;;;;21.51;44.90;100348.13;5071909;28;20569;-65
2023/05/10 10:59:51;;;;;;;4.55;2.40;;;;;;;21.54;44.62;100347.81;5072098;28;20074;-63
2023/05/10 11:02:45;;;;;;;4.53;2.45;;;;;;;21.58;44.57;100345.63;5071473;28;20040;-64
2023/05/10 11:05:46;;;;;;;4.43;2.42;;;;;;;21.59;44.57;100340.03;5071233;28;20539;-64
2023/05/10 11:08:20;;;;;;;5.32;2.28;;;;;;;21.61;44.94;100332.56;5071622;28;20048;-65
2023/05/10 11:10:54;;;;;;;4.60;2.35;;;;;;;21.62;44.77;100325.31;5071324;28;20052;-65
2023/05/10 11:13:32;;;;;;;4.82;2.30;;;;;;;21.65;44.42;100327.69;5071386;28;20139;-63
2023/05/10 11:16:18;;;;;;;5.13;2.20;;;;;;;21.67;44.55;100321.06;5071499;28;20080;-64
2023/05/10 11:18:55;;;;;;;5.30;2.28;;;;;;;21.70;44.30;100331.59;5070069;28;20094;-64
2023/05/10 11:21:23;;;;;;;4.40;2.25;;;;;;;21.75;44.27;100319.44;5071361;28;20127;-64
2023/05/10 11:23:55;;;;;;;4.45;2.40;;;;;;;21.77;44.38;100320.97;5071482;28;20052;-65
2023/05/10 11:26:25;;;;;;;3.50;2.08;;;;;;;21.80;44.46;100317.06;5071563;28;20056;-65
2023/05/10 11:28:56;;;;;;;4.40;2.50;;;;;;;21.80;44.45;100319.78;5071278;28;20130;-64
2023/05/10 11:31:26;;;;;;;4.28;2.20;;;;;;;21.84;44.03;100313.03;5071395;28;20101;-65
2023/05/10 11:33:56;;;;;;;6.15;2.28;;;;;;;21.87;44.33;100309.97;5071308;28;20178;-66
2023/05/10 11:36:29;;;;;;;3.15;1.92;;;;;;;21.88;44.10;100293.50;5071365;28;20079;-65
2023/05/10 11:38:58;;;;;;;6.17;2.20;;;;;;;21.90;44.07;100290.63;5071148;28;20060;-65
2023/05/10 11:41:27;;;;;;;5.43;2.22;;;;;;;21.93;43.85;100295.75;5071349;28;20717;-65